createdAt,value
2023-05-15T00:00:34.610Z,11.40
2023-05-15T00:03:01.272Z,11.37
2023-05-15T00:05:28.113Z,11.26
2023-05-15T00:07:54.756Z,11.17
2023-05-15T00:10:21.522Z,11.09
2023-05-15T00:12:48.135Z,11.04
2023-05-15T00:15:14.753Z,10.98
2023-05-15T00:17:41.363Z,10.94
2023-05-15T00:20:09.795Z,10.86
2023-05-15T00:22:36.426Z,10.80
2023-05-15T00:25:03.124Z,10.73
2023-05-15T00:27:29.746Z,10.69
2023-05-15T00:29:56.348Z,10.62
2023-05-15T00:32:22.962Z,10.56
2023-05-15T00:34:49.549Z,10.51
2023-05-15T00:37:16.248Z,10.39
2023-05-15T00:39:42.887Z,10.35
2023-05-15T00:42:10.295Z,10.24
2023-05-15T00:44:40.662Z,10.29
2023-05-15T00:47:07.875Z,10.17
2023-05-15T00:49:35.736Z,10.12
2023-05-15T00:52:03.817Z,10.07
2023-05-15T00:54:30.641Z,9.97
2023-05-15T00:56:58.240Z,9.99
2023-05-15T00:59:32.715Z,9.92
2023-05-15T01:01:59.552Z,9.87
2023-05-15T01:04:26.370Z,9.78
2023-05-15T01:06:56.842Z,9.81
2023-05-15T01:09:25.592Z,9.78
2023-05-15T01:11:54.986Z,9.81
2023-05-15T01:14:21.617Z,9.82
2023-05-15T01:16:48.398Z,9.83
2023-05-15T01:19:15.274Z,9.78
2023-05-15T01:22:01.469Z,9.71
2023-05-15T01:24:36.284Z,9.61
2023-05-15T01:27:17.931Z,9.61
2023-05-15T01:29:54.028Z,9.60
2023-05-15T01:32:29.434Z,9.57
2023-05-15T01:35:34.265Z,9.50
2023-05-15T01:38:44.818Z,9.45
2023-05-15T01:41:34.199Z,9.36
2023-05-15T01:44:25.674Z,9.29
2023-05-15T01:46:55.943Z,9.22
2023-05-15T01:49:26.302Z,9.20
2023-05-15T01:51:59.843Z,9.12
2023-05-15T01:54:29.124Z,9.13
2023-05-15T01:56:57.165Z,9.09
2023-05-15T01:59:25.183Z,9.13
2023-05-15T02:01:52.632Z,9.11
2023-05-15T02:04:20.713Z,9.08
2023-05-15T02:06:50.367Z,9.05
2023-05-15T02:09:18.367Z,9.01
2023-05-15T02:11:45.206Z,8.93
2023-05-15T02:14:14.753Z,8.92
2023-05-15T02:16:41.521Z,8.83
2023-05-15T02:19:08.361Z,8.80
2023-05-15T02:21:35.534Z,8.79
2023-05-15T02:24:02.117Z,8.75
2023-05-15T02:26:53.335Z,8.78
2023-05-15T02:29:21.782Z,8.81
2023-05-15T02:32:13.033Z,8.74
2023-05-15T02:34:50.142Z,8.66
2023-05-15T02:37:21.080Z,8.69
2023-05-15T02:39:53.826Z,8.67
2023-05-15T02:42:21.987Z,8.62
2023-05-15T02:44:48.919Z,8.59
2023-05-15T02:47:16.705Z,8.52
2023-05-15T02:49:43.399Z,8.48
2023-05-15T02:52:10.055Z,8.49
2023-05-15T02:54:36.627Z,8.45
2023-05-15T02:57:03.320Z,8.42
2023-05-15T02:59:29.888Z,8.43
2023-05-15T03:01:56.470Z,8.40
2023-05-15T03:04:23.755Z,8.45
2023-05-15T03:06:50.388Z,8.40
2023-05-15T03:09:17.986Z,8.38
2023-05-15T03:11:44.555Z,8.32
2023-05-15T03:14:11.256Z,8.25
2023-05-15T03:16:38.995Z,8.27
2023-05-15T03:19:05.942Z,8.30
2023-05-15T03:21:32.546Z,8.29
2023-05-15T03:23:59.090Z,8.35
2023-05-15T03:26:25.780Z,8.42
2023-05-15T03:28:53.063Z,8.48
2023-05-15T03:31:19.750Z,8.50
2023-05-15T03:33:50.685Z,8.50
2023-05-15T03:36:17.510Z,8.51
2023-05-15T03:38:44.446Z,8.44
2023-05-15T03:41:11.050Z,8.44
2023-05-15T03:43:37.679Z,8.40
2023-05-15T03:46:05.751Z,8.48
2023-05-15T03:48:32.362Z,8.49
2023-05-15T03:50:59.128Z,8.49
2023-05-15T03:53:25.884Z,8.47
2023-05-15T03:55:52.570Z,8.48
2023-05-15T03:58:19.185Z,8.52
2023-05-15T04:00:45.890Z,8.58
2023-05-15T04:03:12.719Z,8.63
2023-05-15T04:05:39.507Z,8.60
2023-05-15T04:08:06.973Z,8.58
2023-05-15T04:10:33.802Z,8.55
2023-05-15T04:13:00.375Z,8.57
2023-05-15T04:15:28.638Z,8.58
2023-05-15T04:17:55.564Z,8.63
2023-05-15T04:20:24.337Z,8.72
2023-05-15T04:22:52.395Z,8.79
2023-05-15T04:25:20.329Z,8.94
2023-05-15T04:27:47.166Z,9.08
2023-05-15T04:30:13.841Z,9.30
2023-05-15T04:32:41.129Z,9.41
2023-05-15T04:35:10.361Z,9.36
2023-05-15T04:37:38.245Z,9.39
2023-05-15T04:40:07.117Z,9.45
2023-05-15T04:42:34.184Z,9.58
2023-05-15T04:45:00.868Z,9.75
2023-05-15T04:47:27.566Z,9.91
2023-05-15T04:49:54.189Z,10.00
2023-05-15T04:52:20.831Z,10.08
2023-05-15T04:54:49.649Z,10.18
2023-05-15T04:57:16.532Z,10.38
2023-05-15T04:59:43.198Z,10.58
2023-05-15T05:02:10.341Z,10.77
2023-05-15T05:04:37.034Z,10.99
2023-05-15T05:07:05.835Z,11.17
2023-05-15T05:09:32.516Z,11.35
2023-05-15T05:12:00.403Z,11.55
2023-05-15T05:14:27.083Z,11.68
2023-05-15T05:16:53.773Z,11.95
2023-05-15T05:19:20.384Z,12.14
2023-05-15T05:21:47.001Z,12.39
2023-05-15T05:24:13.599Z,12.54
2023-05-15T05:26:43.404Z,12.52
2023-05-15T05:29:09.995Z,12.57
2023-05-15T05:31:36.608Z,12.64
2023-05-15T05:34:03.296Z,12.70
2023-05-15T05:36:29.912Z,12.76
2023-05-15T05:38:56.497Z,12.92
2023-05-15T05:41:23.249Z,13.10
2023-05-15T05:43:49.862Z,13.26
2023-05-15T05:46:16.436Z,13.28
2023-05-15T05:48:43.032Z,13.36
2023-05-15T05:51:09.629Z,13.39
2023-05-15T05:53:37.510Z,13.38
2023-05-15T05:56:05.020Z,13.54
2023-05-15T05:58:31.853Z,13.83
2023-05-15T06:00:58.670Z,14.19
2023-05-15T06:03:25.989Z,14.37
2023-05-15T06:05:53.702Z,14.70
2023-05-15T06:08:20.702Z,15.00
2023-05-15T06:10:47.333Z,15.17
2023-05-15T06:13:15.139Z,15.34
2023-05-15T06:15:42.208Z,15.44
2023-05-15T06:18:08.883Z,15.66
2023-05-15T06:20:35.695Z,15.63
2023-05-15T06:23:02.333Z,15.64
2023-05-15T06:25:29.085Z,15.67
2023-05-15T06:27:55.914Z,15.84
2023-05-15T06:30:23.020Z,16.00
2023-05-15T06:32:49.865Z,16.17
2023-05-15T06:35:16.690Z,16.39
2023-05-15T06:37:43.330Z,16.63
2023-05-15T06:40:10.337Z,16.93
2023-05-15T06:42:36.963Z,16.84
2023-05-15T06:45:03.835Z,16.69
2023-05-15T06:47:30.662Z,16.70
2023-05-15T06:49:57.252Z,16.68
2023-05-15T06:52:23.890Z,16.46
2023-05-15T06:54:50.603Z,16.58
2023-05-15T06:57:17.182Z,16.88
2023-05-15T06:59:43.901Z,16.94
2023-05-15T07:02:10.714Z,16.87
2023-05-15T07:04:37.481Z,16.97
2023-05-15T07:07:04.346Z,16.98
2023-05-15T07:09:31.246Z,17.12
2023-05-15T07:11:58.068Z,17.17
2023-05-15T07:14:24.657Z,17.30
2023-05-15T07:16:51.304Z,17.43
2023-05-15T07:19:21.635Z,17.66
2023-05-15T07:21:48.513Z,17.72
2023-05-15T07:24:15.134Z,18.06
2023-05-15T07:26:56.984Z,18.22
2023-05-15T07:29:25.358Z,18.55
2023-05-15T07:31:52.004Z,18.64
2023-05-15T07:34:18.680Z,18.90
2023-05-15T07:36:46.677Z,19.18
2023-05-15T07:39:13.935Z,19.13
2023-05-15T07:41:40.568Z,19.18
2023-05-15T07:44:07.172Z,19.44
2023-05-15T07:46:34.421Z,19.53
2023-05-15T07:49:01.096Z,20.48
2023-05-15T07:51:27.676Z,20.81
2023-05-15T07:53:54.298Z,20.24
2023-05-15T07:56:21.561Z,20.35
2023-05-15T07:58:48.437Z,20.28
2023-05-15T08:01:15.209Z,20.43
2023-05-15T08:03:41.931Z,20.49
2023-05-15T08:06:08.697Z,20.38
2023-05-15T08:08:35.340Z,20.28
2023-05-15T08:11:02.622Z,20.01
2023-05-15T08:13:29.409Z,19.97
2023-05-15T08:15:56.252Z,20.06
2023-05-15T08:18:22.992Z,19.84
2023-05-15T08:20:50.091Z,19.67
2023-05-15T08:23:17.033Z,19.70
2023-05-15T08:25:43.774Z,19.50
2023-05-15T08:28:11.375Z,19.43
2023-05-15T08:30:38.107Z,19.33
2023-05-15T08:33:05.116Z,19.30
2023-05-15T08:35:32.119Z,19.26
2023-05-15T08:38:08.803Z,19.14
2023-05-15T08:40:43.406Z,19.20
2023-05-15T08:43:18.334Z,18.89
2023-05-15T08:45:55.180Z,18.85
2023-05-15T08:48:28.401Z,19.12
2023-05-15T08:51:00.181Z,19.27
2023-05-15T08:53:42.327Z,19.33
2023-05-15T08:56:09.290Z,19.32
2023-05-15T08:58:56.780Z,19.34
2023-05-15T09:01:24.088Z,19.57
2023-05-15T09:03:54.202Z,19.73
2023-05-15T09:06:36.045Z,19.78
2023-05-15T09:09:05.238Z,19.80
2023-05-15T09:11:37.891Z,19.81
2023-05-15T09:17:03.957Z,19.78
2023-05-15T09:19:35.021Z,19.63
2023-05-15T09:22:21.364Z,19.49
2023-05-15T09:24:54.329Z,19.34
2023-05-15T09:27:24.197Z,19.30
2023-05-15T09:29:57.092Z,19.11
2023-05-15T09:32:37.881Z,19.07
2023-05-15T09:35:28.897Z,19.13
2023-05-15T09:40:33.102Z,19.05
2023-05-15T09:43:05.704Z,19.06
2023-05-15T09:45:40.421Z,19.09
2023-05-15T09:48:18.340Z,19.29
2023-05-15T09:50:50.585Z,19.51
2023-05-15T09:53:24.211Z,19.67
2023-05-15T09:55:52.500Z,19.80
2023-05-15T09:58:19.386Z,20.04
2023-05-15T10:00:49.436Z,20.09
2023-05-15T10:03:20.027Z,20.14
2023-05-15T10:05:46.999Z,20.44
2023-05-15T10:08:15.047Z,20.71
2023-05-15T10:10:41.875Z,20.89
2023-05-15T10:13:10.211Z,20.80
2023-05-15T10:15:38.586Z,20.61
2023-05-15T10:18:06.775Z,20.82
2023-05-15T10:20:36.010Z,21.22
2023-05-15T10:23:05.357Z,21.37
2023-05-15T10:25:42.473Z,21.52
2023-05-15T10:28:11.488Z,21.50
2023-05-15T10:30:39.602Z,21.59
2023-05-15T10:33:08.067Z,22.05
2023-05-15T10:35:35.094Z,22.07
2023-05-15T10:38:05.078Z,22.22
2023-05-15T10:40:33.156Z,22.41
2023-05-15T10:43:03.241Z,22.65
2023-05-15T10:45:38.143Z,22.61
2023-05-15T10:48:07.849Z,22.27
2023-05-15T10:50:37.042Z,22.71
2023-05-15T10:53:04.018Z,22.88
2023-05-15T10:55:31.115Z,22.81
2023-05-15T10:57:57.864Z,22.49
2023-05-15T11:00:27.140Z,22.62
2023-05-15T11:02:57.128Z,22.42
2023-05-15T11:05:24.865Z,22.19
2023-05-15T11:08:25.786Z,22.21
2023-05-15T11:10:53.596Z,21.88
2023-05-15T11:13:20.774Z,21.70
2023-05-15T11:15:48.311Z,21.42
2023-05-15T11:18:15.512Z,20.86
2023-05-15T11:20:43.150Z,20.73
2023-05-15T11:23:09.790Z,20.87
2023-05-15T11:25:37.452Z,20.58
2023-05-15T11:28:04.982Z,20.63
2023-05-15T11:30:39.623Z,20.74
2023-05-15T11:33:10.678Z,20.84
2023-05-15T11:35:43.356Z,20.67
2023-05-15T11:38:09.884Z,20.76
2023-05-15T11:40:48.944Z,20.59
2023-05-15T11:43:31.831Z,20.51
2023-05-15T11:46:09.726Z,20.79
2023-05-15T11:48:41.779Z,20.89
2023-05-15T11:51:26.000Z,20.88
2023-05-15T11:53:55.065Z,20.97
2023-05-15T11:56:28.590Z,20.84
2023-05-15T11:58:57.412Z,20.91
2023-05-15T12:01:24.401Z,21.10
2023-05-15T12:03:54.411Z,21.16
2023-05-15T12:06:21.695Z,21.18
2023-05-15T12:08:52.925Z,21.37
2023-05-15T12:11:24.079Z,21.39
2023-05-15T12:13:55.203Z,21.69
2023-05-15T12:16:28.770Z,22.19
2023-05-15T12:18:59.005Z,22.93
2023-05-15T12:21:28.435Z,23.37
2023-05-15T12:24:07.743Z,23.73
2023-05-15T12:26:36.469Z,23.28
2023-05-15T12:29:04.412Z,23.07
2023-05-15T12:31:31.683Z,22.94
2023-05-15T12:33:58.398Z,22.78
2023-05-15T12:36:29.777Z,22.58
2023-05-15T12:38:57.110Z,22.44
2023-05-15T12:41:30.344Z,22.33
2023-05-15T12:43:57.007Z,22.22
2023-05-15T12:46:25.560Z,22.14
2023-05-15T12:48:52.400Z,22.43
2023-05-15T12:51:19.023Z,23.23
2023-05-15T12:53:47.890Z,23.65
2023-05-15T12:56:17.559Z,23.80
2023-05-15T12:58:44.354Z,24.02
2023-05-15T13:01:11.089Z,23.84
2023-05-15T13:03:38.299Z,23.85
2023-05-15T13:06:07.093Z,24.70
2023-05-15T13:08:41.065Z,25.14
2023-05-15T13:11:12.501Z,24.91
2023-05-15T13:13:49.879Z,24.73
2023-05-15T13:16:22.942Z,24.54
2023-05-15T13:18:50.046Z,25.00
2023-05-15T13:21:17.371Z,24.65
2023-05-15T13:23:44.972Z,24.32
2023-05-15T13:26:11.717Z,23.79
2023-05-15T13:28:38.292Z,23.63
2023-05-15T13:31:05.434Z,23.37
2023-05-15T13:33:32.232Z,23.15
2023-05-15T13:35:58.791Z,23.08
2023-05-15T13:38:25.439Z,22.98
2023-05-15T13:40:52.091Z,23.54
2023-05-15T13:43:18.664Z,23.78
2023-05-15T13:45:45.272Z,24.45
2023-05-15T13:48:11.934Z,25.04
2023-05-15T13:50:39.591Z,25.44
2023-05-15T13:53:06.381Z,24.94
2023-05-15T13:55:33.153Z,24.44
2023-05-15T13:58:01.199Z,24.02
2023-05-15T14:00:27.816Z,23.28
2023-05-15T14:02:55.554Z,23.18
2023-05-15T14:05:22.197Z,22.79
2023-05-15T14:07:48.800Z,22.56
2023-05-15T14:10:15.477Z,21.42
2023-05-15T14:12:43.508Z,20.84
2023-05-15T14:15:11.716Z,20.34
2023-05-15T14:17:38.488Z,19.98
2023-05-15T14:20:05.617Z,19.49
2023-05-15T14:22:32.744Z,19.75
2023-05-15T14:24:59.421Z,20.12
2023-05-15T14:27:25.982Z,19.99
2023-05-15T14:29:52.587Z,20.28
2023-05-15T14:32:19.277Z,20.04
2023-05-15T14:34:45.994Z,19.58
2023-05-15T14:37:12.569Z,19.79
2023-05-15T14:39:39.271Z,19.56
2023-05-15T14:42:06.491Z,19.48
2023-05-15T14:44:34.343Z,19.41
2023-05-15T14:47:15.173Z,19.42
2023-05-15T14:49:41.766Z,19.45
2023-05-15T14:52:09.940Z,19.03
2023-05-15T14:54:38.820Z,19.19
2023-05-15T14:57:05.769Z,19.29
2023-05-15T14:59:32.411Z,19.46
2023-05-15T15:01:59.084Z,19.59
2023-05-15T15:04:28.010Z,19.12
2023-05-15T15:06:57.089Z,19.28
2023-05-15T15:09:25.613Z,19.99
2023-05-15T15:11:53.696Z,20.10
2023-05-15T15:14:20.616Z,20.69
2023-05-15T15:16:47.535Z,20.62
2023-05-15T15:19:16.123Z,20.78
2023-05-15T15:21:44.214Z,20.22
2023-05-15T15:24:34.070Z,19.83
2023-05-15T15:27:11.297Z,19.79
2023-05-15T15:29:38.149Z,20.15
2023-05-15T15:32:05.059Z,20.76
2023-05-15T15:34:31.801Z,21.11
2023-05-15T15:36:58.405Z,20.82
2023-05-15T15:39:24.993Z,20.72
2023-05-15T15:41:54.072Z,20.55
2023-05-15T15:44:25.269Z,20.62
2023-05-15T15:46:52.140Z,19.84
2023-05-15T15:49:18.731Z,19.64
2023-05-15T15:51:47.851Z,19.46
2023-05-15T15:54:17.146Z,19.06
2023-05-15T15:56:44.086Z,18.91
2023-05-15T15:59:10.915Z,18.95
2023-05-15T16:01:37.581Z,18.86
2023-05-15T16:04:12.283Z,18.74
2023-05-15T16:06:39.230Z,18.78
2023-05-15T16:09:06.640Z,18.76
2023-05-15T16:11:33.934Z,18.63
2023-05-15T16:14:00.777Z,18.65
2023-05-15T16:16:28.977Z,18.46
2023-05-15T16:18:55.658Z,18.28
2023-05-15T16:21:22.355Z,18.11
2023-05-15T16:23:53.788Z,18.06
2023-05-15T16:26:22.934Z,17.80
2023-05-15T16:28:49.707Z,17.66
2023-05-15T16:31:17.044Z,17.80
2023-05-15T16:33:43.982Z,17.70
2023-05-15T16:36:10.690Z,17.60
2023-05-15T16:38:37.504Z,17.44
2023-05-15T16:41:06.857Z,17.48
2023-05-15T16:43:33.804Z,17.41
2023-05-15T16:46:00.880Z,17.24
2023-05-15T16:48:30.437Z,17.41
2023-05-15T16:50:57.305Z,17.37
2023-05-15T16:53:24.059Z,17.17
2023-05-15T16:55:51.180Z,17.06
2023-05-15T16:58:17.828Z,17.08
2023-05-15T17:00:44.554Z,16.91
2023-05-15T17:03:12.889Z,16.37
2023-05-15T17:05:40.468Z,16.08
2023-05-15T17:08:07.669Z,15.78
2023-05-15T17:10:34.417Z,15.49
2023-05-15T17:13:04.783Z,15.37
2023-05-15T17:15:31.382Z,15.34
2023-05-15T17:17:58.308Z,14.91
2023-05-15T17:20:25.083Z,14.76
2023-05-15T17:22:54.106Z,14.84
2023-05-15T17:25:21.071Z,14.80
2023-05-15T17:27:47.908Z,14.85
2023-05-15T17:30:14.992Z,14.98
2023-05-15T17:32:44.935Z,15.00
2023-05-15T17:35:11.986Z,14.99
2023-05-15T17:37:38.878Z,14.91
2023-05-15T17:40:06.443Z,14.99
2023-05-15T17:42:33.257Z,14.93
2023-05-15T17:45:00.437Z,14.83
2023-05-15T17:47:27.223Z,14.74
2023-05-15T17:49:56.454Z,14.70
2023-05-15T17:52:23.474Z,14.61
2023-05-15T17:54:53.060Z,14.61
2023-05-15T17:57:29.971Z,14.72
2023-05-15T17:59:56.961Z,14.66
2023-05-15T18:02:24.052Z,14.64
2023-05-15T18:04:53.519Z,14.86
2023-05-15T18:07:20.518Z,14.66
2023-05-15T18:09:47.379Z,14.67
2023-05-15T18:12:17.296Z,14.67
2023-05-15T18:14:44.875Z,14.67
2023-05-15T18:17:11.740Z,14.71
2023-05-15T18:19:40.079Z,14.64
2023-05-15T18:22:07.116Z,14.68
2023-05-15T18:24:34.794Z,14.66
2023-05-15T18:27:02.359Z,14.70
2023-05-15T18:29:29.910Z,14.65
2023-05-15T18:31:56.971Z,14.60
2023-05-15T18:34:23.702Z,14.54
2023-05-15T18:36:52.244Z,14.54
2023-05-15T18:39:19.606Z,14.48
2023-05-15T18:41:46.313Z,14.39
2023-05-15T18:44:13.636Z,14.35
2023-05-15T18:46:40.618Z,14.36
2023-05-15T18:49:07.658Z,14.31
2023-05-15T18:51:35.729Z,14.29
2023-05-15T18:54:03.451Z,14.22
2023-05-15T18:56:30.577Z,14.23
2023-05-15T18:58:57.639Z,14.23
2023-05-15T19:01:24.483Z,14.07
2023-05-15T19:03:52.072Z,14.21
2023-05-15T19:06:20.400Z,14.26
2023-05-15T19:08:48.723Z,14.18
2023-05-15T19:11:18.963Z,14.05
2023-05-15T19:13:45.804Z,14.02
2023-05-15T19:16:13.384Z,14.07
2023-05-15T19:18:40.203Z,14.00
2023-05-15T19:21:07.258Z,13.93
2023-05-15T19:23:33.938Z,13.85
2023-05-15T19:26:00.772Z,13.82
2023-05-15T19:28:28.006Z,13.81
2023-05-15T19:30:54.874Z,13.85
2023-05-15T19:33:21.668Z,13.74
2023-05-15T19:35:48.784Z,13.97
2023-05-15T19:38:15.721Z,13.90
2023-05-15T19:40:44.428Z,13.86
2023-05-15T19:43:11.573Z,13.76
2023-05-15T19:45:48.501Z,13.72
2023-05-15T19:48:15.195Z,13.77
2023-05-15T19:50:42.251Z,13.82
2023-05-15T19:53:15.075Z,13.85
2023-05-15T19:55:41.692Z,13.99
2023-05-15T19:58:08.539Z,14.03
2023-05-15T20:00:35.892Z,14.10
2023-05-15T20:03:02.744Z,14.05
2023-05-15T20:05:29.632Z,14.09
2023-05-15T20:07:56.344Z,14.01
2023-05-15T20:10:23.136Z,13.93
2023-05-15T20:12:50.013Z,13.91
2023-05-15T20:15:17.186Z,13.88
2023-05-15T20:17:44.190Z,13.88
2023-05-15T20:20:17.909Z,13.80
2023-05-15T20:22:45.024Z,13.76
2023-05-15T20:25:11.856Z,13.68
2023-05-15T20:27:41.184Z,13.62
2023-05-15T20:30:10.483Z,13.55
2023-05-15T20:32:37.364Z,13.69
2023-05-15T20:35:04.608Z,13.61
2023-05-15T20:37:31.264Z,13.61
2023-05-15T20:40:02.238Z,13.59
2023-05-15T20:42:29.152Z,13.48
2023-05-15T20:44:56.422Z,13.57
2023-05-15T20:47:23.287Z,13.55
2023-05-15T20:49:56.356Z,13.61
2023-05-15T20:52:39.417Z,13.60
2023-05-15T20:55:16.185Z,13.64
2023-05-15T20:57:50.749Z,13.63
2023-05-15T21:00:18.490Z,13.67
2023-05-15T21:02:47.785Z,13.67
2023-05-15T21:05:14.838Z,13.72
2023-05-15T21:07:45.839Z,13.69
2023-05-15T21:10:17.047Z,13.65
2023-05-15T21:12:45.170Z,13.50
2023-05-15T21:15:14.990Z,13.45
2023-05-15T21:17:42.417Z,13.45
2023-05-15T21:20:12.117Z,13.52
2023-05-15T21:22:44.733Z,13.38
2023-05-15T21:25:23.732Z,13.45
2023-05-15T21:27:50.968Z,13.51
2023-05-15T21:30:17.662Z,13.44
2023-05-15T21:32:44.659Z,13.38
2023-05-15T21:35:12.914Z,13.54
2023-05-15T21:37:39.788Z,13.43
2023-05-15T21:40:07.347Z,13.28
2023-05-15T21:42:38.598Z,13.34
2023-05-15T21:45:08.222Z,13.41
2023-05-15T21:47:46.374Z,13.45
2023-05-15T21:50:18.549Z,13.51
2023-05-15T21:52:45.192Z,13.65
2023-05-15T21:55:15.048Z,13.74
2023-05-15T21:57:44.254Z,13.67
2023-05-15T22:00:11.896Z,13.51
2023-05-15T22:02:38.955Z,13.53
2023-05-15T22:05:06.236Z,13.53
2023-05-15T22:07:35.083Z,13.44
2023-05-15T22:10:07.640Z,13.46
2023-05-15T22:12:34.797Z,13.47
2023-05-15T22:15:04.244Z,13.54
2023-05-15T22:17:31.518Z,13.51
2023-05-15T22:20:11.976Z,13.57
2023-05-15T22:22:43.136Z,13.62
2023-05-15T22:25:13.632Z,13.64
2023-05-15T22:27:42.989Z,13.52
2023-05-15T22:30:10.496Z,13.62
2023-05-15T22:32:37.428Z,13.40
2023-05-15T22:35:08.755Z,13.46
2023-05-15T22:37:36.201Z,13.59
2023-05-15T22:40:06.862Z,13.40
2023-05-15T22:42:33.820Z,13.24
2023-05-15T22:45:04.430Z,13.34
2023-05-15T22:47:38.367Z,13.23
2023-05-15T22:50:12.251Z,13.08
2023-05-15T22:52:43.561Z,13.04
2023-05-15T22:55:11.442Z,13.28
2023-05-15T22:57:44.165Z,13.17
2023-05-15T23:00:16.658Z,13.19
2023-05-15T23:02:44.971Z,13.15
2023-05-15T23:05:14.899Z,13.15
2023-05-15T23:07:41.756Z,13.09
2023-05-15T23:10:09.223Z,12.90
2023-05-15T23:12:45.017Z,12.76
2023-05-15T23:15:13.846Z,12.94
2023-05-15T23:17:46.350Z,12.80
2023-05-15T23:20:13.641Z,12.90
2023-05-15T23:22:40.689Z,12.80
2023-05-15T23:25:15.361Z,12.75
2023-05-15T23:27:41.961Z,12.62
2023-05-15T23:30:18.292Z,12.59
2023-05-15T23:32:45.286Z,12.61
2023-05-15T23:35:12.207Z,12.57
2023-05-15T23:37:38.942Z,12.54
2023-05-15T23:40:06.654Z,12.49
2023-05-15T23:42:39.215Z,12.69
2023-05-15T23:45:07.122Z,12.48
2023-05-15T23:47:33.847Z,12.66
2023-05-15T23:50:11.305Z,12.47
2023-05-15T23:52:40.983Z,12.49
2023-05-15T23:55:14.176Z,12.40
2023-05-15T23:57:40.784Z,12.56
